Time;durP1;ratioP1;P1;durP2;ratioP2;P2;SDS_P1;SDS_P2;PMS_P1;PMS_P2;Temp;Humidity;BMP_temperature;BMP_pressure;BME280_temperature;BME280_humidity;BME280_pressure;Samples;Min_cycle;Max_cycle;Signal;HPM_P1;HPM_P2
2023/07/17 00:01:28;;;;;;;;;;;;;;;22.88;63.75;100632.77;108184;1255;72693;-78
2023/07/17 00:03:55;;;;;;;;;;;;;;;22.84;63.79;100633.66;108137;1254;61798;-78
2023/07/17 00:06:22;;;;;;;;;;;;;;;22.82;63.90;100633.10;108239;1257;61131;-78
2023/07/17 00:08:50;;;;;;;;;;;;;;;22.81;64.13;100634.30;108213;1258;73121;-78
2023/07/17 00:11:17;;;;;;;;;;;;;;;22.80;63.94;100630.59;108147;1254;72787;-78
2023/07/17 00:13:44;;;;;;;;;;;;;;;22.75;64.22;100631.45;108156;1258;71791;-79
2023/07/17 00:16:12;;;;;;;;;;;;;;;22.69;64.44;100630.80;108165;1257;61103;-78
2023/07/17 00:18:40;;;;;;;;;;;;;;;22.63;64.62;100625.70;108194;1258;61370;-78
2023/07/17 00:21:07;;;;;;;;;;;;;;;22.62;64.82;100629.77;108196;1254;74644;-78
2023/07/17 00:23:34;;;;;;;;;;;;;;;22.60;64.75;100628.46;108187;1256;70935;-78
2023/07/17 00:26:00;;;;;;;;;;;;;;;22.57;64.98;100628.81;108213;1254;61102;-77
2023/07/17 00:28:27;;;;;;;;;;;;;;;22.53;65.11;100628.31;108100;1254;61958;-79
2023/07/17 00:30:54;;;;;;;;;;;;;;;22.51;65.01;100628.15;108233;1253;61116;-79
2023/07/17 00:33:22;;;;;;;;;;;;;;;22.49;65.21;100626.77;108149;1254;72760;-80
2023/07/17 00:35:48;;;;;;;;;;;;;;;22.46;65.35;100625.73;108123;1258;71216;-79
2023/07/17 00:38:18;;;;;;;;;;;;;;;22.42;65.43;100624.80;108160;1254;73883;-79
2023/07/17 00:40:46;;;;;;;;;;;;;;;22.39;65.55;100620.58;108177;1258;61984;-79
2023/07/17 00:43:12;;;;;;;;;;;;;;;22.39;65.66;100620.42;108055;1254;61095;-79
2023/07/17 00:45:40;;;;;;;;;;;;;;;22.39;65.82;100616.77;108158;1254;74867;-80
2023/07/17 00:48:07;;;;;;;;;;;;;;;22.39;65.91;100613.66;108199;1254;72810;-79
2023/07/17 00:50:34;;;;;;;;;;;;;;;22.38;65.94;100612.56;108124;1254;72566;-79
2023/07/17 00:53:02;;;;;;;;;;;;;;;22.38;65.90;100612.30;108098;1254;61944;-79
2023/07/17 00:55:29;;;;;;;;;;;;;;;22.38;66.01;100609.64;108205;1253;61231;-79
2023/07/17 00:57:56;;;;;;;;;;;;;;;22.37;65.96;100611.35;108153;1255;74663;-79
2023/07/17 01:00:23;;;;;;;;;;;;;;;22.36;66.04;100614.48;108121;1254;73800;-78
2023/07/17 01:02:51;;;;;;;;;;;;;;;22.35;66.26;100612.96;108138;1255;73482;-78
2023/07/17 03:03:58;;;;;;;;;;;;;;;21.72;69.87;100651.84;108091;1254;62463;-79
2023/07/17 03:06:25;;;;;;;;;;;;;;;21.76;69.96;100650.40;108130;1254;61222;-79
2023/07/17 03:08:51;;;;;;;;;;;;;;;21.79;69.97;100651.86;108093;1254;61244;-79
2023/07/17 03:11:19;;;;;;;;;;;;;;;21.82;70.12;100649.38;108129;1254;61098;-79
2023/07/17 03:13:46;;;;;;;;;;;;;;;21.86;70.31;100651.16;108028;1254;72755;-79
2023/07/17 03:16:13;;;;;;;;;;;;;;;21.91;70.46;100649.13;108070;1254;62284;-79
2023/07/17 03:18:39;;;;;;;;;;;;;;;21.97;70.61;100650.18;108091;1254;61132;-79
2023/07/17 03:21:06;;;;;;;;;;;;;;;22.02;70.60;100648.04;108175;1254;74571;-79
2023/07/17 03:23:32;;;;;;;;;;;;;;;22.09;70.74;100650.95;107988;1254;59679;-79
2023/07/17 03:25:59;;;;;;;;;;;;;;;22.22;70.78;100651.52;108119;1254;59289;-78
2023/07/17 03:28:25;;;;;;;;;;;;;;;22.32;70.74;100649.55;108097;1254;61353;-78
2023/07/17 03:30:53;;;;;;;;;;;;;;;22.39;70.63;100652.78;108039;1254;61104;-79
2023/07/17 03:33:20;;;;;;;;;;;;;;;22.48;70.63;100654.33;108114;1254;75232;-79
2023/07/17 03:35:46;;;;;;;;;;;;;;;22.61;70.73;100655.39;108110;1254;72539;-78
2023/07/17 03:38:13;;;;;;;;;;;;;;;22.77;70.66;100656.42;108013;1254;75996;-79
2023/07/17 03:40:40;;;;;;;;;;;;;;;22.91;70.45;100660.42;108039;1254;64900;-78
2023/07/17 03:43:06;;;;;;;;;;;;;;;23.04;70.38;100659.54;108127;1253;59417;-78
2023/07/17 03:45:33;;;;;;;;;;;;;;;23.17;70.10;100661.69;108116;1254;61934;-78
2023/07/17 03:47:59;;;;;;;;;;;;;;;23.30;69.81;100665.70;108072;1254;72156;-79
2023/07/17 03:50:28;;;;;;;;;;;;;;;23.41;69.37;100663.17;108130;1254;75258;-79
2023/07/17 03:52:54;;;;;;;;;;;;;;;23.55;69.33;100659.16;108141;1254;61203;-78
2023/07/17 03:55:21;;;;;;;;;;;;;;;23.70;69.16;100662.13;108112;1254;61097;-77
2023/07/17 03:57:48;;;;;;;;;;;;;;;23.87;68.76;100665.31;108063;1254;62861;-79
2023/07/17 04:00:15;;;;;;;;;;;;;;;24.03;68.26;100665.40;108012;1254;71132;-79
2023/07/17 04:02:41;;;;;;;;;;;;;;;24.17;67.61;100668.44;108055;1254;73263;-79
2023/07/17 04:05:13;;;;;;;;;;;;;;;24.30;67.17;100666.70;108021;1254;61581;-78
2023/07/17 04:07:42;;;;;;;;;;;;;;;24.41;66.76;100663.59;108057;1254;61207;-78
2023/07/17 04:10:11;;;;;;;;;;;;;;;24.56;66.55;100665.73;107966;1260;75728;-79
2023/07/17 04:12:40;;;;;;;;;;;;;;;24.68;66.01;100661.15;108007;1254;73620;-79
2023/07/17 04:15:09;;;;;;;;;;;;;;;24.78;65.69;100664.61;108122;1253;70828;-78
2023/07/17 04:17:38;;;;;;;;;;;;;;;24.88;65.35;100664.55;108065;1254;64681;-79
2023/07/17 04:20:11;;;;;;;;;;;;;;;25.01;65.07;100661.83;108052;1254;59995;-79
2023/07/17 04:22:52;;;;;;;;;;;;;;;25.12;64.67;100662.50;108045;1259;73126;-79
2023/07/17 04:25:29;;;;;;;;;;;;;;;25.16;64.26;100663.18;108127;1254;72783;-80
2023/07/17 04:28:04;;;;;;;;;;;;;;;25.18;63.94;100663.31;108135;1254;76726;-80
2023/07/17 04:30:44;;;;;;;;;;;;;;;25.22;63.61;100663.95;108140;1254;63894;-79
2023/07/17 04:33:19;;;;;;;;;;;;;;;25.28;63.21;100666.73;108213;1254;63198;-79
2023/07/17 04:36:00;;;;;;;;;;;;;;;25.34;62.77;100662.89;108196;1257;77056;-79
2023/07/17 04:38:57;;;;;;;;;;;;;;;25.38;62.26;100662.92;108003;1254;73589;-79
2023/07/17 04:41:44;;;;;;;;;;;;;;;25.48;61.96;100664.73;108118;1254;72413;-79
2023/07/17 04:44:34;;;;;;;;;;;;;;;25.58;61.40;100664.24;108167;1258;64735;-79
2023/07/17 04:47:34;;;;;;;;;;;;;;;25.65;60.96;100666.35;108131;1254;63156;-79
2023/07/17 04:50:38;;;;;;;;;;;;;;;25.73;60.31;100668.33;108155;1254;75276;-80
2023/07/17 04:53:26;;;;;;;;;;;;;;;25.81;59.87;100666.17;108124;1254;73893;-77
2023/07/17 04:56:01;;;;;;;;;;;;;;;25.91;59.79;100668.98;108111;1254;74881;-79
2023/07/17 04:58:45;;;;;;;;;;;;;;;26.01;59.28;100664.83;108017;1254;62477;-78
2023/07/17 05:01:46;;;;;;;;;;;;;;;26.12;58.81;100665.20;108118;1254;62107;-78
2023/07/17 05:04:37;;;;;;;;;;;;;;;26.22;58.42;100664.00;108146;1254;74489;-79
2023/07/17 05:07:17;;;;;;;;;;;;;;;26.33;57.83;100659.99;108140;1254;74536;-79
2023/07/17 05:09:57;;;;;;;;;;;;;;;26.45;57.33;100658.50;107917;1259;73211;-78
2023/07/17 05:12:43;;;;;;;;;;;;;;;26.55;57.11;100659.89;107826;1254;62429;-78
2023/07/17 05:15:42;;;;;;;;;;;;;;;26.67;56.61;100658.95;108019;1254;63377;-78
2023/07/17 05:18:29;;;;;;;;;;;;;;;26.80;55.92;100658.16;108001;1254;74392;-78
2023/07/17 05:21:07;;;;;;;;;;;;;;;26.92;55.37;100657.73;108070;1254;74575;-77
2023/07/17 05:24:04;;;;;;;;;;;;;;;27.07;55.02;100650.16;108074;1254;72795;-78
2023/07/17 05:27:05;;;;;;;;;;;;;;;27.23;54.33;100650.91;108060;1254;63625;-78
2023/07/17 05:29:56;;;;;;;;;;;;;;;27.30;53.63;100650.95;108064;1257;59941;-78
2023/07/17 05:32:53;;;;;;;;;;;;;;;27.39;53.37;100654.77;108038;1253;77714;-78
2023/07/17 05:35:44;;;;;;;;;;;;;;;27.47;52.50;100646.66;107980;1257;72041;-78
2023/07/17 05:38:44;;;;;;;;;;;;;;;27.50;52.07;100647.87;108035;1254;74753;-80
2023/07/17 05:41:42;;;;;;;;;;;;;;;27.56;51.00;100649.36;107960;1254;61261;-80
2023/07/17 05:44:33;;;;;;;;;;;;;;;27.62;50.74;100651.81;108112;1254;61285;-79
2023/07/17 05:47:19;;;;;;;;;;;;;;;27.72;50.75;100653.21;108105;1254;76159;-79
2023/07/17 05:50:19;;;;;;;;;;;;;;;27.83;50.88;100653.70;108160;1255;75356;-79
2023/07/17 05:53:14;;;;;;;;;;;;;;;27.88;50.23;100650.94;108132;1254;66046;-80
2023/07/17 05:55:56;;;;;;;;;;;;;;;27.90;49.93;100652.05;108111;1254;61416;-78
2023/07/17 05:58:57;;;;;;;;;;;;;;;28.07;49.92;100651.48;108074;1254;61131;-79
2023/07/17 06:01:45;;;;;;;;;;;;;;;28.23;49.89;100651.45;107898;1254;76071;-78
2023/07/17 06:04:14;;;;;;;;;;;;;;;28.38;49.86;100651.85;107959;1254;71624;-78
2023/07/17 06:06:41;;;;;;;;;;;;;;;28.53;49.85;100652.89;108049;1254;72053;-78
2023/07/17 06:09:10;;;;;;;;;;;;;;;28.65;49.39;100650.97;108030;1254;59239;-78
2023/07/17 06:11:37;;;;;;;;;;;;;;;28.75;49.15;100653.98;108145;1254;61122;-77
2023/07/17 06:14:03;;;;;;;;;;;;;;;28.80;47.71;100648.29;108122;1254;59698;-78
2023/07/17 06:16:30;;;;;;;;;;;;;;;28.86;47.60;100646.85;108061;1254;61253;-78
2023/07/17 06:18:57;;;;;;;;;;;;;;;29.00;47.22;100645.90;108154;1254;66939;-78
2023/07/17 06:21:24;;;;;;;;;;;;;;;29.16;46.89;100649.25;108131;1254;61247;-80
2023/07/17 06:23:56;;;;;;;;;;;;;;;29.31;46.36;100653.85;108170;1254;60582;-78
2023/07/17 06:26:22;;;;;;;;;;;;;;;29.40;45.68;100656.26;108180;1254;68431;-78
2023/07/17 06:28:50;;;;;;;;;;;;;;;29.41;45.54;100656.66;108173;1254;64272;-78
2023/07/17 06:31:17;;;;;;;;;;;;;;;29.45;46.00;100660.63;108149;1254;63917;-80
2023/07/17 06:33:44;;;;;;;;;;;;;;;29.50;45.85;100656.24;108151;1254;59401;-79
2023/07/17 06:36:11;;;;;;;;;;;;;;;29.53;45.39;100651.79;108199;1254;62802;-77
2023/07/17 06:38:39;;;;;;;;;;;;;;;29.58;44.70;100647.73;108254;1254;75919;-77
2023/07/17 06:41:05;;;;;;;;;;;;;;;29.64;43.98;100647.48;108240;1254;76459;-78
2023/07/17 06:43:32;;;;;;;;;;;;;;;29.69;43.65;100646.48;108204;1254;66551;-77
2023/07/17 06:45:59;;;;;;;;;;;;;;;29.75;42.93;100645.41;108247;1254;59032;-78
2023/07/17 06:48:26;;;;;;;;;;;;;;;29.82;43.25;100647.73;108251;1254;61778;-79
2023/07/17 06:50:54;;;;;;;;;;;;;;;29.91;42.93;100651.31;108184;1254;66092;-79
2023/07/17 06:53:22;;;;;;;;;;;;;;;30.03;42.49;100650.10;108158;1254;72420;-78
2023/07/17 06:56:00;;;;;;;;;;;;;;;30.13;42.11;100650.05;108177;1254;65841;-78
2023/07/17 06:58:31;;;;;;;;;;;;;;;30.25;42.09;100651.38;108076;1254;61244;-79
2023/07/17 07:00:59;;;;;;;;;;;;;;;30.38;42.14;100656.86;108126;1254;61172;-77
2023/07/17 07:03:29;;;;;;;;;;;;;;;30.50;41.82;100658.23;108055;1254;66858;-79
2023/07/17 07:05:56;;;;;;;;;;;;;;;30.58;41.63;100659.19;108036;1254;64423;-79
2023/07/17 07:08:24;;;;;;;;;;;;;;;30.66;41.64;100658.42;108178;1254;64008;-79
2023/07/17 07:10:52;;;;;;;;;;;;;;;30.70;41.51;100658.19;108270;1254;61065;-79
2023/07/17 07:13:21;;;;;;;;;;;;;;;30.80;41.48;100656.87;108118;1254;61392;-79
2023/07/17 07:15:48;;;;;;;;;;;;;;;30.95;41.34;100653.58;108079;1254;66276;-79
2023/07/17 07:18:15;;;;;;;;;;;;;;;31.11;41.07;100649.31;108098;1257;64790;-79
2023/07/17 07:20:41;;;;;;;;;;;;;;;31.25;40.85;100647.48;108058;1253;63923;-78
2023/07/17 07:23:07;;;;;;;;;;;;;;;31.37;40.49;100650.82;108073;1254;61014;-78
2023/07/17 07:25:34;;;;;;;;;;;;;;;31.44;40.19;100651.05;108173;1254;61133;-78
2023/07/17 07:28:01;;;;;;;;;;;;;;;31.48;39.31;100650.25;108170;1254;70851;-78
2023/07/17 07:30:27;;;;;;;;;;;;;;;31.44;39.09;100646.48;108210;1254;65484;-80
2023/07/17 07:32:55;;;;;;;;;;;;;;;31.38;39.09;100647.27;108133;1254;62988;-80
2023/07/17 07:35:22;;;;;;;;;;;;;;;31.35;39.09;100647.91;108175;1254;61238;-80
2023/07/17 07:37:48;;;;;;;;;;;;;;;31.35;39.53;100650.35;108171;1253;61178;-78
2023/07/17 07:40:16;;;;;;;;;;;;;;;31.37;39.43;100647.44;108151;1254;65945;-79
2023/07/17 07:42:42;;;;;;;;;;;;;;;31.44;39.67;100645.85;108147;1257;63628;-79
2023/07/17 07:45:09;;;;;;;;;;;;;;;31.60;39.50;100646.27;108165;1254;66201;-79
2023/07/17 07:47:36;;;;;;;;;;;;;;;31.77;38.67;100642.77;108100;1254;61239;-79
2023/07/17 07:50:03;;;;;;;;;;;;;;;31.86;37.82;100641.02;108120;1254;61163;-79
2023/07/17 07:52:29;;;;;;;;;;;;;;;31.94;37.31;100643.83;108167;1254;65932;-81
2023/07/17 07:54:56;;;;;;;;;;;;;;;32.01;37.08;100642.63;108150;1254;61131;-79
2023/07/17 07:57:29;;;;;;;;;;;;;;;32.07;36.69;100642.90;107999;1253;64547;-78
2023/07/17 07:59:56;;;;;;;;;;;;;;;32.11;36.54;100642.48;108168;1254;61120;-79
2023/07/17 08:02:23;;;;;;;;;;;;;;;32.17;36.25;100638.03;108146;1254;61238;-78
2023/07/17 08:04:50;;;;;;;;;;;;;;;32.16;36.02;100636.70;108163;1254;65811;-78
2023/07/17 08:07:18;;;;;;;;;;;;;;;32.12;36.33;100638.23;108104;1254;65412;-79
2023/07/17 08:09:48;;;;;;;;;;;;;;;32.22;36.80;100635.17;108175;1254;75350;-79
2023/07/17 08:12:17;;;;;;;;;;;;;;;32.38;36.59;100632.63;108147;1257;61137;-80
2023/07/17 08:14:45;;;;;;;;;;;;;;;32.52;35.88;100630.27;108245;1255;61151;-78
2023/07/17 08:17:12;;;;;;;;;;;;;;;32.59;35.08;100631.65;108232;1254;77768;-79
2023/07/17 08:19:38;;;;;;;;;;;;;;;32.59;34.41;100631.18;108178;1254;61101;-79
2023/07/17 08:22:05;;;;;;;;;;;;;;;32.63;34.14;100633.20;108149;1257;64455;-78
2023/07/17 08:24:32;;;;;;;;;;;;;;;32.70;34.14;100631.72;108103;1254;59027;-78
2023/07/17 08:26:59;;;;;;;;;;;;;;;32.76;33.88;100632.86;108140;1253;61264;-77
2023/07/17 08:29:31;;;;;;;;;;;;;;;32.80;33.74;100630.39;108177;1254;66018;-77
2023/07/17 08:31:57;;;;;;;;;;;;;;;32.82;33.80;100630.36;108153;1255;64156;-78
2023/07/17 08:34:25;;;;;;;;;;;;;;;32.90;34.31;100626.43;108133;1254;64135;-78
2023/07/17 08:36:52;;;;;;;;;;;;;;;33.02;34.33;100629.59;108132;1254;61011;-79
2023/07/17 08:39:18;;;;;;;;;;;;;;;33.11;33.69;100632.59;108155;1254;61328;-77
2023/07/17 08:41:46;;;;;;;;;;;;;;;33.19;33.80;100638.85;108196;1254;61158;-79
2023/07/17 08:44:13;;;;;;;;;;;;;;;33.32;34.14;100633.73;108173;1254;63711;-79
2023/07/17 08:46:39;;;;;;;;;;;;;;;33.49;34.18;100632.71;108163;1254;62847;-79
2023/07/17 08:49:07;;;;;;;;;;;;;;;33.66;33.65;100638.23;108030;1254;61128;-78
2023/07/17 08:51:34;;;;;;;;;;;;;;;33.82;32.98;100636.22;108168;1254;61229;-79
2023/07/17 08:54:01;;;;;;;;;;;;;;;33.97;32.47;100629.62;108153;1254;61122;-77
2023/07/17 08:56:49;;;;;;;;;;;;;;;34.08;32.03;100628.08;108145;1254;64660;-77
2023/07/17 08:59:16;;;;;;;;;;;;;;;34.16;31.73;100632.09;108010;1254;65032;-78
2023/07/17 09:01:44;;;;;;;;;;;;;;;34.21;31.30;100631.39;108132;1254;61260;-78
2023/07/17 09:04:11;;;;;;;;;;;;;;;34.22;31.60;100630.52;108028;1254;61154;-78
2023/07/17 09:06:38;;;;;;;;;;;;;;;34.29;31.71;100629.67;108140;1253;64866;-77
2023/07/17 09:09:04;;;;;;;;;;;;;;;34.39;31.45;100625.73;108128;1254;61128;-77
2023/07/17 09:11:31;;;;;;;;;;;;;;;34.48;31.19;100626.16;108127;1254;61233;-77
2023/07/17 09:13:57;;;;;;;;;;;;;;;34.51;31.05;100625.32;108160;1254;60338;-77
2023/07/17 09:16:24;;;;;;;;;;;;;;;34.52;31.34;100625.19;108070;1254;60960;-76
2023/07/17 09:18:51;;;;;;;;;;;;;;;34.53;31.25;100625.48;108121;1254;68762;-77
2023/07/17 09:21:22;;;;;;;;;;;;;;;34.52;31.78;100628.34;108129;1254;72044;-78
2023/07/17 09:23:49;;;;;;;;;;;;;;;34.51;31.93;100625.48;108155;1254;64081;-77
2023/07/17 09:26:16;;;;;;;;;;;;;;;34.55;31.80;100622.59;108176;1254;61138;-79
2023/07/17 09:28:50;;;;;;;;;;;;;;;34.61;31.80;100619.98;108173;1253;62837;-78
2023/07/17 09:31:29;;;;;;;;;;;;;;;34.63;31.37;100614.31;108160;1254;66103;-78
2023/07/17 09:33:58;;;;;;;;;;;;;;;34.57;31.13;100613.69;108173;1254;63969;-78
2023/07/17 09:36:25;;;;;;;;;;;;;;;34.53;31.09;100611.86;108144;1254;63386;-79
2023/07/17 09:38:52;;;;;;;;;;;;;;;34.57;31.46;100610.45;108171;1253;61159;-78
2023/07/17 09:41:23;;;;;;;;;;;;;;;34.64;31.40;100608.66;108156;1254;61194;-78
2023/07/17 09:43:53;;;;;;;;;;;;;;;34.73;31.03;100608.27;108135;1253;77943;-77
2023/07/17 09:46:20;;;;;;;;;;;;;;;34.82;30.92;100605.90;108176;1254;64140;-76
2023/07/17 09:48:47;;;;;;;;;;;;;;;34.89;30.69;100604.29;108175;1254;65270;-78
2023/07/17 09:51:13;;;;;;;;;;;;;;;34.95;30.57;100602.92;107999;1253;61673;-78
2023/07/17 09:53:45;;;;;;;;;;;;;;;35.00;30.18;100604.88;108176;1255;60950;-78
2023/07/17 09:56:15;;;;;;;;;;;;;;;35.03;30.00;100606.06;108163;1253;67190;-79
2023/07/17 09:58:45;;;;;;;;;;;;;;;35.03;30.18;100598.21;108177;1255;63959;-78
2023/07/17 10:01:17;;;;;;;;;;;;;;;35.05;30.53;100599.27;108229;1254;63754;-78
2023/07/17 10:03:44;;;;;;;;;;;;;;;35.12;30.52;100600.02;108146;1254;61116;-78
2023/07/17 10:06:11;;;;;;;;;;;;;;;35.21;29.91;100596.98;108184;1257;61373;-79
2023/07/17 10:08:38;;;;;;;;;;;;;;;35.26;29.85;100597.86;108151;1254;66444;-79
2023/07/17 10:11:04;;;;;;;;;;;;;;;35.28;29.59;100596.48;108147;1254;64238;-79
2023/07/17 10:13:31;;;;;;;;;;;;;;;35.27;29.52;100591.96;108019;1254;72810;-79
2023/07/17 10:15:58;;;;;;;;;;;;;;;35.31;30.15;100589.13;108175;1254;61295;-78
2023/07/17 10:18:26;;;;;;;;;;;;;;;35.31;29.93;100588.88;108206;1254;61153;-77
2023/07/17 10:20:53;;;;;;;;;;;;;;;35.29;30.08;100583.83;108151;1254;77663;-77
2023/07/17 10:23:24;;;;;;;;;;;;;;;35.44;30.10;100580.22;108184;1254;65222;-77
2023/07/17 10:25:52;;;;;;;;;;;;;;;35.62;29.76;100580.02;108147;1253;67470;-78
2023/07/17 10:28:29;;;;;;;;;;;;;;;35.82;29.44;100577.20;108158;1254;61260;-78
2023/07/17 10:30:56;;;;;;;;;;;;;;;36.03;28.99;100576.15;108224;1254;61078;-78
2023/07/17 10:33:23;;;;;;;;;;;;;;;36.13;28.96;100576.55;108012;1254;67570;-78
2023/07/17 10:35:55;;;;;;;;;;;;;;;36.23;28.77;100576.88;108185;1254;63050;-77
2023/07/17 10:38:25;;;;;;;;;;;;;;;36.28;28.60;100572.95;108128;1253;72795;-78
2023/07/17 10:41:02;;;;;;;;;;;;;;;36.31;28.50;100572.89;108163;1254;61363;-77
2023/07/17 10:43:29;;;;;;;;;;;;;;;36.36;28.50;100569.36;108120;1254;61109;-78
2023/07/17 10:45:56;;;;;;;;;;;;;;;36.54;28.08;100573.23;108158;1254;77444;-77
2023/07/17 10:48:25;;;;;;;;;;;;;;;36.63;28.08;100569.11;107908;1254;61319;-77
2023/07/17 10:50:53;;;;;;;;;;;;;;;36.72;27.69;100564.66;108210;1254;62770;-77
2023/07/17 10:53:20;;;;;;;;;;;;;;;36.85;28.17;100561.79;108139;1254;59520;-77
2023/07/17 10:55:47;;;;;;;;;;;;;;;36.98;28.34;100556.28;108192;1254;61167;-77
2023/07/17 10:58:13;;;;;;;;;;;;;;;37.08;27.86;100554.19;108144;1254;61144;-76
2023/07/17 11:00:41;;;;;;;;;;;;;;;36.99;27.72;100557.52;108050;1254;65182;-77
2023/07/17 11:03:09;;;;;;;;;;;;;;;36.77;28.23;100556.58;108099;1254;64230;-78
2023/07/17 11:05:36;;;;;;;;;;;;;;;36.67;28.95;100558.36;108027;1254;61186;-77
2023/07/17 11:08:04;;;;;;;;;;;;;;;36.60;29.13;100560.52;108153;1253;61102;-78
2023/07/17 11:10:30;;;;;;;;;;;;;;;36.73;28.63;100558.12;108179;1254;65982;-78
2023/07/17 11:13:00;;;;;;;;;;;;;;;36.79;28.81;100556.61;108173;1254;61210;-77
2023/07/17 11:15:26;;;;;;;;;;;;;;;36.77;29.14;100558.89;108133;1255;63824;-77
2023/07/17 11:17:53;;;;;;;;;;;;;;;36.65;29.74;100560.55;108170;1254;61108;-78
2023/07/17 11:20:20;;;;;;;;;;;;;;;36.53;30.18;100561.49;108127;1254;61181;-78
2023/07/17 11:22:46;;;;;;;;;;;;;;;36.37;30.43;100559.14;108227;1253;65893;-78
2023/07/17 11:25:13;;;;;;;;;;;;;;;36.24;30.27;100557.09;108219;1254;61173;-78
2023/07/17 11:27:40;;;;;;;;;;;;;;;36.23;30.76;100555.63;108115;1254;65228;-78
2023/07/17 11:30:14;;;;;;;;;;;;;;;36.29;30.80;100550.36;108183;1254;61143;-78
2023/07/17 11:32:41;;;;;;;;;;;;;;;36.35;30.61;100548.22;108131;1256;61101;-78
2023/07/17 11:35:12;;;;;;;;;;;;;;;36.34;30.67;100547.21;107131;1257;5348158;-77
2023/07/17 11:37:40;;;;;;;;;;;;;;;36.30;30.57;100546.46;108112;1257;61420;-77
2023/07/17 11:40:08;;;;;;;;;;;;;;;36.20;31.09;100545.65;108199;1254;61423;-77
2023/07/17 11:42:55;;;;;;;;;;;;;;;36.00;30.95;100544.12;108150;1254;59110;-77
2023/07/17 11:45:25;;;;;;;;;;;;;;;35.88;30.85;100542.21;108188;1254;61114;-78
2023/07/17 11:47:52;;;;;;;;;;;;;;;35.85;31.16;100541.02;108156;1253;61089;-78
2023/07/17 11:50:19;;;;;;;;;;;;;;;35.95;31.76;100539.39;108183;1254;67267;-77
2023/07/17 11:53:04;;;;;;;;;;;;;;;36.14;31.34;100538.63;108092;1254;64729;-78
2023/07/17 11:55:34;;;;;;;;;;;;;;;36.31;30.39;100530.70;108151;1254;65432;-78
2023/07/17 11:58:11;;;;;;;;;;;;;;;36.32;29.63;100532.89;108160;1254;61119;-79
2023/07/17 12:00:44;;;;;;;;;;;;;;;36.30;30.05;100531.67;108138;1254;61151;-79
2023/07/17 12:03:11;;;;;;;;;;;;;;;36.31;31.10;100530.59;108148;1254;66121;-78
2023/07/17 12:05:38;;;;;;;;;;;;;;;36.37;30.51;100524.80;108172;1255;66383;-78
2023/07/17 12:08:06;;;;;;;;;;;;;;;36.47;30.53;100524.81;108003;1254;64145;-78
2023/07/17 12:10:33;;;;;;;;;;;;;;;36.45;30.65;100522.39;108161;1254;61354;-78
2023/07/17 12:13:00;;;;;;;;;;;;;;;36.40;30.30;100517.11;108185;1255;63110;-78
2023/07/17 12:15:26;;;;;;;;;;;;;;;36.43;30.13;100516.09;108154;1254;61110;-78
2023/07/17 12:17:53;;;;;;;;;;;;;;;36.61;29.73;100517.40;108181;1254;64202;-78
2023/07/17 12:20:20;;;;;;;;;;;;;;;36.74;28.76;100513.48;108149;1254;66390;-79
2023/07/17 12:22:51;;;;;;;;;;;;;;;36.82;28.53;100509.28;108153;1254;61265;-78
2023/07/17 12:25:18;;;;;;;;;;;;;;;36.96;28.40;100504.40;108213;1253;61098;-78
2023/07/17 12:27:44;;;;;;;;;;;;;;;37.09;28.46;100500.94;108134;1254;64926;-77
2023/07/17 12:30:11;;;;;;;;;;;;;;;37.21;28.21;100498.16;108193;1254;61284;-77
2023/07/17 12:32:38;;;;;;;;;;;;;;;37.24;27.96;100498.54;108146;1255;64128;-78
2023/07/17 12:35:05;;;;;;;;;;;;;;;37.24;28.12;100496.05;108170;1254;61262;-77
2023/07/17 12:37:33;;;;;;;;;;;;;;;37.19;28.36;100499.40;108189;1254;61112;-78
2023/07/17 12:40:00;;;;;;;;;;;;;;;37.11;28.57;100496.99;108191;1254;66072;-77
2023/07/17 12:42:27;;;;;;;;;;;;;;;37.00;28.65;100497.69;108163;1254;65118;-77
2023/07/17 12:44:55;;;;;;;;;;;;;;;36.84;29.08;100495.89;108162;1254;61349;-78
2023/07/17 12:47:22;;;;;;;;;;;;;;;36.69;29.04;100497.39;107996;1253;61255;-77
2023/07/17 12:49:49;;;;;;;;;;;;;;;36.56;29.84;100493.45;108044;1254;61166;-79
2023/07/17 12:52:17;;;;;;;;;;;;;;;36.47;30.19;100492.39;108154;1254;68979;-77
2023/07/17 12:54:45;;;;;;;;;;;;;;;36.41;29.83;100492.22;108199;1254;72841;-78
2023/07/17 12:57:12;;;;;;;;;;;;;;;36.36;29.59;100493.52;108165;1255;61246;-77
2023/07/17 12:59:42;;;;;;;;;;;;;;;36.36;30.13;100491.77;108196;1254;61236;-77
2023/07/17 13:02:09;;;;;;;;;;;;;;;36.43;30.08;100488.75;108230;1254;60430;-78
2023/07/17 13:04:36;;;;;;;;;;;;;;;36.51;30.43;100485.22;108183;1257;76248;-76
2023/07/17 13:07:03;;;;;;;;;;;;;;;36.65;29.66;100483.74;108038;1254;61249;-78
2023/07/17 13:09:29;;;;;;;;;;;;;;;36.74;29.24;100475.08;108096;1254;72357;-78
2023/07/17 13:11:56;;;;;;;;;;;;;;;36.85;29.96;100467.39;108150;1254;61263;-78
2023/07/17 13:14:22;;;;;;;;;;;;;;;37.02;29.99;100465.27;108150;1257;61117;-78
2023/07/17 13:16:49;;;;;;;;;;;;;;;37.20;29.58;100466.48;108190;1254;60502;-78
2023/07/17 13:19:17;;;;;;;;;;;;;;;37.39;29.59;100462.38;108185;1254;61227;-78
2023/07/17 13:21:44;;;;;;;;;;;;;;;37.51;29.04;100455.00;108152;1253;65397;-78
2023/07/17 13:24:11;;;;;;;;;;;;;;;37.66;28.93;100452.79;108158;1254;62775;-78
2023/07/17 13:26:37;;;;;;;;;;;;;;;37.81;28.41;100450.26;108024;1253;60405;-76
2023/07/17 13:29:07;;;;;;;;;;;;;;;37.93;28.37;100447.16;108153;1254;61122;-78
2023/07/17 13:31:36;;;;;;;;;;;;;;;38.06;28.56;100444.27;108135;1254;64112;-78
2023/07/17 13:34:03;;;;;;;;;;;;;;;38.15;28.49;100443.67;108176;1257;61216;-78
2023/07/17 13:36:30;;;;;;;;;;;;;;;38.18;28.02;100448.80;108182;1254;61150;-78
2023/07/17 13:38:57;;;;;;;;;;;;;;;38.23;27.82;100449.61;108168;1253;61122;-78
2023/07/17 13:41:42;;;;;;;;;;;;;;;38.30;27.84;100448.64;108222;1254;59992;-78
2023/07/17 13:44:08;;;;;;;;;;;;;;;38.42;27.38;100445.38;108180;1254;74832;-77
2023/07/17 13:46:36;;;;;;;;;;;;;;;38.54;27.01;100441.82;108198;1253;67054;-77
2023/07/17 13:49:03;;;;;;;;;;;;;;;38.51;26.81;100443.18;108226;1254;61233;-77
2023/07/17 13:51:30;;;;;;;;;;;;;;;38.49;26.56;100443.08;108217;1254;60029;-77
2023/07/17 13:53:57;;;;;;;;;;;;;;;38.52;26.44;100444.44;108205;1257;67374;-78
2023/07/17 13:56:24;;;;;;;;;;;;;;;38.54;26.93;100440.20;108215;1255;60966;-78
2023/07/17 13:58:53;;;;;;;;;;;;;;;38.51;26.95;100439.42;108180;1254;64328;-77
2023/07/17 14:01:20;;;;;;;;;;;;;;;38.47;26.88;100437.79;108191;1255;61213;-77
2023/07/17 14:03:48;;;;;;;;;;;;;;;38.46;27.31;100438.46;108185;1253;59284;-77
2023/07/17 14:06:16;;;;;;;;;;;;;;;38.48;27.13;100439.27;108201;1255;68109;-77
2023/07/17 14:08:43;;;;;;;;;;;;;;;38.59;26.52;100437.64;108211;1255;72930;-77
2023/07/17 14:11:10;;;;;;;;;;;;;;;38.73;26.57;100441.36;108217;1253;66179;-78
2023/07/17 14:13:37;;;;;;;;;;;;;;;38.94;27.10;100437.90;107887;1253;61165;-77
2023/07/17 14:16:04;;;;;;;;;;;;;;;39.30;26.36;100435.58;108177;1254;61002;-77
2023/07/17 14:18:30;;;;;;;;;;;;;;;39.68;25.81;100432.41;108181;1254;65980;-77
2023/07/17 14:20:57;;;;;;;;;;;;;;;40.07;25.22;100433.39;108169;1255;61280;-78
2023/07/17 14:23:24;;;;;;;;;;;;;;;40.54;24.60;100430.27;108213;1254;64131;-78
2023/07/17 14:25:50;;;;;;;;;;;;;;;40.85;24.18;100425.05;108215;1254;61133;-78
2023/07/17 14:28:16;;;;;;;;;;;;;;;40.87;23.98;100424.75;108192;1255;61127;-78
2023/07/17 14:30:43;;;;;;;;;;;;;;;40.68;23.99;100421.39;108184;1254;76522;-78
2023/07/17 14:33:10;;;;;;;;;;;;;;;40.37;24.26;100421.20;108273;1253;75589;-78
2023/07/17 14:35:38;;;;;;;;;;;;;;;40.04;25.28;100420.84;108260;1253;74804;-79
2023/07/17 14:38:08;;;;;;;;;;;;;;;39.68;25.62;100417.32;108228;1253;61339;-79
2023/07/17 14:40:35;;;;;;;;;;;;;;;39.29;26.07;100416.29;108233;1252;61140;-77